KRFD/RFD METAR and TAF weather

Enter ICAO airport designator
Station Type Date Time Source
KRFD METAR 2018/07/21 03:54 UTC NOAA

KRFD 210354Z 31013KT 10SM BKN017 OVC023 21/18 A2971 RMK AO2 SLP056 T02060183 $


Station Type Date Time Source
KRFD Decoded METAR 2018/07/21 03:54 UTC NOAA

GREATER ROCKFORD AIRPORT, IL, United States (KRFD) 42-12N 89-06W 221M
Jul 20, 2018 - 11:54 PM EDT / 2018.07.21 0354 UTC
Wind: from the NW (310 degrees) at 15 MPH (13 KT):0
Visibility: 10 mile(s):0
Sky conditions: overcast
Temperature: 69.1 F (20.6 C)
Dew Point: 64.9 F (18.3 C)
Relative Humidity: 86%
Pressure (altimeter): 29.71 in. Hg (1006 hPa)
ob: KRFD 210354Z 31013KT 10SM BKN017 OVC023 21/18 A2971 RMK AO2 SLP056 T02060183
cycle: 4

Station Type Date Time Source
KRFD TAF 2018/07/21 03:06 UTC NOAA

TAF KRFD 210300Z 2103/2124 31012KT 6SM -SHRA SCT008 BKN012
TEMPO 2104/2107 2SM SHRA BKN008
FM210700 34012KT P6SM VCSH BKN008
FM211400 36012G18KT P6SM VCSH SCT008 BKN015
FM211800 35013G20KT P6SM VCSH SCT025 BKN035


Example: see airport list